Time;durP1;ratioP1;P1;durP2;ratioP2;P2;SDS_P1;SDS_P2;PMS_P1;PMS_P2;Temp;Humidity;BMP_temperature;BMP_pressure;BME280_temperature;BME280_humidity;BME280_pressure;Samples;Min_cycle;Max_cycle;Signal;HPM_P1;HPM_P2
2024/03/31 00:01:42;;;;;;;61.50;5.55;;;20.80;27.50;;;;;;4998932;28;20244;-64
2024/03/31 00:04:11;;;;;;;68.95;6.90;;;20.70;27.70;;;;;;4993385;28;20046;-64
2024/03/31 00:06:39;;;;;;;72.72;8.07;;;20.50;27.80;;;;;;5005645;28;20055;-63
2024/03/31 00:09:06;;;;;;;64.07;6.43;;;20.40;27.90;;;;;;5000652;28;20053;-64
2024/03/31 00:11:33;;;;;;;55.22;7.80;;;20.20;28.50;;;;;;5002791;28;20065;-64
2024/03/31 00:14:00;;;;;;;78.22;7.25;;;20.10;28.10;;;;;;4998772;28;20083;-64
2024/03/31 00:16:27;;;;;;;69.97;5.28;;;20.00;28.20;;;;;;5010804;28;20053;-63
2024/03/31 00:18:54;;;;;;;80.80;7.20;;;19.90;28.30;;;;;;5003934;28;20069;-64
2024/03/31 00:21:21;;;;;;;109.07;13.00;;;19.70;28.40;;;;;;4993708;28;20915;-64
2024/03/31 00:23:49;;;;;;;77.15;9.38;;;19.60;28.50;;;;;;4999701;28;20437;-64
2024/03/31 00:26:16;;;;;;;51.92;6.07;;;19.50;28.60;;;;;;5000742;28;20163;-64
2024/03/31 00:28:46;;;;;;;91.40;14.73;;;19.50;28.70;;;;;;5001537;28;20058;-64
2024/03/31 00:31:14;;;;;;;63.40;7.40;;;19.40;28.80;;;;;;5000907;28;20056;-64
2024/03/31 00:33:41;;;;;;;76.75;10.02;;;19.30;28.80;;;;;;5004529;28;20053;-64
2024/03/31 00:36:09;;;;;;;80.30;9.52;;;19.30;28.90;;;;;;4997771;28;20508;-64
2024/03/31 00:38:36;;;;;;;140.48;25.02;;;19.20;29.00;;;;;;4970835;28;20062;-64
2024/03/31 00:41:05;;;;;;;54.42;10.98;;;19.20;29.10;;;;;;4957688;28;20081;-66
2024/03/31 00:43:31;;;;;;;75.20;8.43;;;19.10;29.10;;;;;;4970005;28;20165;-66
2024/03/31 00:45:58;;;;;;;78.22;6.53;;;19.10;29.20;;;;;;4963745;28;20073;-64
2024/03/31 00:48:25;;;;;;;128.23;18.73;;;19.00;29.20;;;;;;4969508;28;20058;-65
2024/03/31 00:50:52;;;;;;;75.93;7.97;;;18.90;29.30;;;;;;4953521;28;20061;-65
2024/03/31 00:53:19;;;;;;;60.28;9.73;;;18.90;29.40;;;;;;4973624;28;20109;-66
2024/03/31 00:55:46;;;;;;;67.97;6.47;;;18.80;29.50;;;;;;4975087;28;20061;-64
2024/03/31 00:58:14;;;;;;;37.05;5.47;;;18.70;29.50;;;;;;4950352;28;21688;-64
2024/03/31 01:00:41;;;;;;;79.85;11.40;;;18.60;29.60;;;;;;4975588;28;20069;-65
2024/03/31 01:03:08;;;;;;;45.00;6.60;;;18.60;29.80;;;;;;4972202;28;20074;-64
2024/03/31 01:05:35;;;;;;;39.05;6.40;;;18.50;29.80;;;;;;4981926;28;20058;-66
2024/03/31 01:08:02;;;;;;;79.20;11.60;;;18.50;29.90;;;;;;4966936;28;20410;-64
2024/03/31 01:10:30;;;;;;;46.92;6.63;;;18.40;29.90;;;;;;4963320;28;20054;-65
2024/03/31 01:12:56;;;;;;;42.80;5.25;;;18.40;30.00;;;;;;4950620;28;20066;-63
2024/03/31 01:15:27;;;;;;;55.85;6.10;;;18.30;30.00;;;;;;4956872;28;20061;-64
2024/03/31 01:17:56;;;;;;;26.98;5.20;;;18.20;30.00;;;;;;4953241;28;20046;-65
2024/03/31 01:20:24;;;;;;;62.97;7.07;;;18.20;30.20;;;;;;4977322;28;20520;-65
2024/03/31 01:22:51;;;;;;;54.72;7.05;;;18.10;30.20;;;;;;4955620;28;20050;-64
2024/03/31 01:25:20;;;;;;;69.15;6.22;;;18.10;30.30;;;;;;4957649;28;20104;-65
2024/03/31 01:27:46;;;;;;;79.53;10.38;;;18.00;30.40;;;;;;4976705;28;20062;-64
2024/03/31 01:30:14;;;;;;;54.20;5.13;;;18.00;30.50;;;;;;4955480;28;21373;-63
2024/03/31 01:32:40;;;;;;;40.78;5.57;;;17.90;30.50;;;;;;4953708;28;20641;-64
2024/03/31 01:35:08;;;;;;;52.90;4.90;;;17.80;30.50;;;;;;4947792;28;20070;-64
2024/03/31 01:37:34;;;;;;;43.00;5.82;;;17.80;30.70;;;;;;4993240;28;20076;-66
2024/03/31 01:40:02;;;;;;;41.63;4.05;;;17.70;30.80;;;;;;4986680;28;20556;-64
2024/03/31 01:42:29;;;;;;;90.53;12.75;;;17.70;30.80;;;;;;4990733;28;20049;-64
2024/03/31 01:44:57;;;;;;;41.72;7.95;;;17.60;30.90;;;;;;4991007;28;20141;-63
2024/03/31 01:47:23;;;;;;;133.82;24.42;;;17.60;30.90;;;;;;4977670;28;20041;-63
2024/03/31 01:49:51;;;;;;;35.58;6.72;;;17.60;31.30;;;;;;4990833;28;20558;-63
2024/03/31 01:52:18;;;;;;;43.38;6.30;;;17.60;31.20;;;;;;4995807;28;20057;-63
2024/03/31 01:54:46;;;;;;;121.72;9.15;;;17.50;31.20;;;;;;4980751;28;20053;-64
2024/03/31 01:57:12;;;;;;;23.13;5.00;;;17.50;31.20;;;;;;4990633;28;20049;-64
2024/03/31 01:59:41;;;;;;;86.28;6.13;;;17.50;31.30;;;;;;5007655;28;20221;-64
2024/03/31 02:02:07;;;;;;;82.25;11.93;;;17.40;31.40;;;;;;4984000;28;20418;-64
2024/03/31 02:04:35;;;;;;;56.10;5.95;;;17.40;31.50;;;;;;4990059;28;20161;-64
2024/03/31 02:07:01;;;;;;;107.55;11.25;;;17.40;31.50;;;;;;4984023;28;20540;-63
2024/03/31 02:09:28;;;;;;;98.00;13.65;;;17.40;31.60;;;;;;4994136;28;20060;-64
2024/03/31 02:11:55;;;;;;;91.88;15.60;;;17.40;31.60;;;;;;4997115;28;20115;-63
2024/03/31 02:14:24;;;;;;;74.65;8.38;;;17.50;31.70;;;;;;4993206;28;20482;-63
2024/03/31 02:16:52;;;;;;;56.95;6.32;;;17.50;31.70;;;;;;5005945;28;20556;-63
2024/03/31 02:19:19;;;;;;;34.95;5.32;;;17.50;31.70;;;;;;5007277;28;20100;-64
2024/03/31 02:21:45;;;;;;;50.03;6.30;;;17.50;31.80;;;;;;5012189;28;20115;-64
2024/03/31 02:24:13;;;;;;;36.72;5.45;;;17.50;31.80;;;;;;4982871;28;21796;-63
2024/03/31 02:26:39;;;;;;;49.20;5.43;;;17.50;31.90;;;;;;4991658;28;20052;-62
2024/03/31 02:29:07;;;;;;;78.07;7.68;;;17.50;31.90;;;;;;5012050;28;20044;-64
2024/03/31 02:31:33;;;;;;;64.95;6.18;;;17.50;31.90;;;;;;5013537;28;20145;-63
2024/03/31 02:34:05;;;;;;;37.38;4.82;;;17.50;31.90;;;;;;4983945;28;20585;-63
2024/03/31 02:36:31;;;;;;;120.68;12.05;;;17.50;31.90;;;;;;4996093;28;20053;-63
2024/03/31 02:39:00;;;;;;;56.33;4.25;;;17.60;32.00;;;;;;4997494;28;20416;-63
2024/03/31 02:41:28;;;;;;;60.38;6.25;;;17.60;32.00;;;;;;4993159;28;20069;-63
2024/03/31 02:43:55;;;;;;;43.40;5.78;;;17.60;32.00;;;;;;4997015;28;20085;-63
2024/03/31 02:46:22;;;;;;;69.07;6.45;;;17.60;32.00;;;;;;5001470;28;20144;-63
2024/03/31 02:48:49;;;;;;;44.20;5.57;;;17.60;32.00;;;;;;4996033;28;20056;-64
2024/03/31 02:51:17;;;;;;;76.53;6.65;;;17.70;32.10;;;;;;5000777;28;20049;-64
2024/03/31 02:53:44;;;;;;;55.50;6.60;;;17.70;32.10;;;;;;4991901;28;20046;-63
2024/03/31 02:56:11;;;;;;;50.47;6.72;;;17.70;32.10;;;;;;4997992;28;20125;-64
2024/03/31 02:58:38;;;;;;;50.08;5.32;;;17.70;32.10;;;;;;4987191;28;20528;-64
2024/03/31 03:01:05;;;;;;;51.83;5.30;;;17.60;32.10;;;;;;4996257;28;20057;-63
2024/03/31 03:03:32;;;;;;;61.45;5.47;;;17.60;32.20;;;;;;4988357;28;20045;-63
2024/03/31 03:05:59;;;;;;;46.20;7.53;;;17.60;32.20;;;;;;4985296;28;20045;-64
2024/03/31 03:08:28;;;;;;;53.10;5.22;;;17.60;32.20;;;;;;5006728;28;20590;-63
2024/03/31 03:10:55;;;;;;;62.78;6.50;;;17.60;32.30;;;;;;4999817;28;20080;-62
2024/03/31 03:13:24;;;;;;;62.88;7.22;;;17.60;32.30;;;;;;4985271;28;20078;-63
2024/03/31 03:15:51;;;;;;;68.43;5.57;;;17.50;32.40;;;;;;4988129;28;20041;-61
2024/03/31 03:18:20;;;;;;;65.45;5.53;;;17.50;32.40;;;;;;4986157;28;20473;-63
2024/03/31 03:20:52;;;;;;;48.80;6.72;;;17.50;32.50;;;;;;5004916;28;20241;-64
2024/03/31 03:23:20;;;;;;;51.63;8.65;;;17.50;32.50;;;;;;5001055;28;20152;-63
2024/03/31 03:25:55;;;;;;;57.33;6.95;;;17.50;32.60;;;;;;5009087;28;20057;-63
2024/03/31 03:28:22;;;;;;;63.17;6.97;;;17.50;32.70;;;;;;4987868;28;20045;-63
2024/03/31 03:30:48;;;;;;;46.85;6.32;;;17.50;32.60;;;;;;4987709;28;20050;-64
2024/03/31 03:33:20;;;;;;;53.72;5.90;;;17.50;32.60;;;;;;4992424;28;20081;-63
2024/03/31 03:35:50;;;;;;;54.33;6.22;;;17.40;32.70;;;;;;4989727;28;20049;-62
2024/03/31 03:38:18;;;;;;;31.40;5.00;;;17.40;32.80;;;;;;4989242;28;20069;-63
2024/03/31 03:40:47;;;;;;;61.13;5.43;;;17.40;32.90;;;;;;4991861;28;20439;-62
2024/03/31 03:43:16;;;;;;;72.28;5.82;;;17.40;32.90;;;;;;5010429;28;20049;-63
2024/03/31 03:45:46;;;;;;;64.53;6.65;;;17.20;32.90;;;;;;4994739;28;20050;-64
2024/03/31 03:48:14;;;;;;;49.25;6.00;;;17.20;33.00;;;;;;4985011;28;21064;-64
2024/03/31 03:50:40;;;;;;;101.15;6.05;;;17.10;33.00;;;;;;4993796;28;20782;-64
2024/03/31 03:53:09;;;;;;;73.20;6.47;;;17.10;33.10;;;;;;5004160;28;20050;-64
2024/03/31 03:55:35;;;;;;;88.70;6.88;;;17.20;33.30;;;;;;4993349;28;20144;-62
2024/03/31 03:58:03;;;;;;;52.28;6.63;;;17.10;33.20;;;;;;4989278;28;20415;-63
2024/03/31 04:00:31;;;;;;;50.38;5.55;;;17.10;33.30;;;;;;5010268;28;20167;-63
2024/03/31 04:03:00;;;;;;;53.67;5.13;;;17.10;33.40;;;;;;5007732;28;20112;-64
2024/03/31 04:05:27;;;;;;;73.60;5.47;;;17.10;33.40;;;;;;4998170;28;20072;-63
2024/03/31 04:07:54;;;;;;;87.35;6.20;;;17.10;33.40;;;;;;4990897;28;20068;-62
2024/03/31 04:10:21;;;;;;;31.08;5.13;;;17.00;33.50;;;;;;4989182;28;20144;-64
2024/03/31 04:12:49;;;;;;;70.32;7.05;;;17.00;33.50;;;;;;4986683;28;20068;-63
2024/03/31 04:15:16;;;;;;;42.75;5.55;;;17.00;33.80;;;;;;4998218;28;20071;-63
2024/03/31 04:17:45;;;;;;;19.77;3.90;;;17.00;33.80;;;;;;4990427;28;20374;-63
2024/03/31 04:20:12;;;;;;;33.50;5.65;;;17.00;33.90;;;;;;4998609;28;20057;-63
2024/03/31 04:22:40;;;;;;;50.47;6.45;;;17.00;33.90;;;;;;4995254;28;21765;-64
2024/03/31 04:25:07;;;;;;;50.47;5.35;;;17.00;33.90;;;;;;4991184;28;20416;-63
2024/03/31 04:27:34;;;;;;;56.22;6.93;;;17.10;34.00;;;;;;5000054;28;20153;-63
2024/03/31 04:30:00;;;;;;;100.18;5.20;;;17.10;34.20;;;;;;4981094;28;20041;-63
2024/03/31 04:32:28;;;;;;;38.60;4.43;;;17.10;34.40;;;;;;4991939;28;20057;-63
2024/03/31 04:34:56;;;;;;;30.27;4.60;;;17.00;34.50;;;;;;4997087;28;20830;-63
2024/03/31 04:37:24;;;;;;;54.95;5.85;;;17.00;34.50;;;;;;4992596;28;20504;-64
2024/03/31 04:39:51;;;;;;;74.90;7.90;;;17.00;34.50;;;;;;4986641;28;20085;-61
2024/03/31 04:42:20;;;;;;;62.65;5.88;;;17.10;34.50;;;;;;5011465;28;20050;-64
2024/03/31 04:44:49;;;;;;;31.83;4.68;;;17.10;34.40;;;;;;4999657;28;20538;-62
2024/03/31 04:47:17;;;;;;;49.88;7.82;;;17.10;34.40;;;;;;4994385;28;20128;-63
2024/03/31 04:49:44;;;;;;;46.53;5.38;;;17.10;34.40;;;;;;4991922;28;20044;-63
2024/03/31 04:52:12;;;;;;;29.52;5.78;;;17.10;34.40;;;;;;4981852;28;20967;-63
2024/03/31 04:54:40;;;;;;;29.58;5.68;;;17.10;34.50;;;;;;5008836;28;20052;-65
2024/03/31 04:57:08;;;;;;;68.68;8.45;;;17.10;34.50;;;;;;5012276;28;20153;-64
2024/03/31 04:59:35;;;;;;;56.30;6.88;;;17.10;34.50;;;;;;5005785;28;20050;-67
2024/03/31 05:02:02;;;;;;;28.20;5.90;;;17.10;34.60;;;;;;4980539;28;20052;-63
2024/03/31 05:04:31;;;;;;;26.83;4.68;;;17.10;34.60;;;;;;5002333;28;20057;-64
2024/03/31 05:06:57;;;;;;;50.45;5.95;;;17.00;34.70;;;;;;4991098;28;20076;-63
2024/03/31 05:09:26;;;;;;;18.00;4.30;;;17.00;34.70;;;;;;5007864;28;20068;-64
2024/03/31 05:11:52;;;;;;;45.78;6.28;;;17.00;35.30;;;;;;4988266;28;20701;-64
2024/03/31 05:14:20;;;;;;;36.05;8.10;;;17.00;34.80;;;;;;4985499;28;20066;-64
2024/03/31 05:16:46;;;;;;;47.05;6.00;;;17.10;34.80;;;;;;5001903;28;20088;-63
2024/03/31 05:19:14;;;;;;;44.60;5.72;;;17.20;34.90;;;;;;4996503;28;20057;-63
2024/03/31 05:21:41;;;;;;;42.40;5.70;;;17.20;35.00;;;;;;5007918;28;20148;-64
2024/03/31 05:24:08;;;;;;;62.92;5.40;;;17.30;34.90;;;;;;4999007;28;20169;-64
2024/03/31 05:26:37;;;;;;;66.90;6.75;;;17.50;35.00;;;;;;4994915;28;20292;-63
2024/03/31 05:29:04;;;;;;;82.50;6.78;;;17.60;35.00;;;;;;4989721;28;20049;-64
2024/03/31 05:31:32;;;;;;;43.00;5.40;;;17.80;35.00;;;;;;4995443;28;20099;-63
2024/03/31 05:34:09;;;;;;;46.67;6.45;;;18.00;35.00;;;;;;5000641;28;20057;-63
2024/03/31 05:36:39;;;;;;;36.25;5.93;;;18.20;34.80;;;;;;4990279;28;20087;-63
2024/03/31 05:39:06;;;;;;;51.15;7.70;;;18.40;34.80;;;;;;4988559;28;20041;-63
2024/03/31 05:41:33;;;;;;;63.78;7.10;;;18.50;34.70;;;;;;5014986;28;20061;-64
2024/03/31 05:44:02;;;;;;;32.00;6.22;;;18.70;34.70;;;;;;4983433;28;20045;-63
2024/03/31 05:46:29;;;;;;;48.63;6.70;;;18.80;34.70;;;;;;4984710;28;20041;-63
2024/03/31 05:48:57;;;;;;;75.68;8.70;;;18.80;34.60;;;;;;5005678;28;20144;-64
2024/03/31 05:51:29;;;;;;;38.10;5.68;;;18.90;34.60;;;;;;4988195;28;20060;-63
2024/03/31 05:53:56;;;;;;;59.65;4.82;;;18.90;34.50;;;;;;4984900;28;20053;-63
2024/03/31 05:56:23;;;;;;;58.00;7.00;;;19.00;34.60;;;;;;4989130;28;20061;-63
2024/03/31 05:58:51;;;;;;;50.25;5.63;;;19.00;34.60;;;;;;4995989;28;20040;-63
2024/03/31 06:01:21;;;;;;;72.53;7.05;;;19.00;34.60;;;;;;5005476;28;20053;-63
2024/03/31 06:03:52;;;;;;;26.60;5.15;;;18.90;34.60;;;;;;4986565;28;20456;-62
2024/03/31 06:06:19;;;;;;;42.13;7.25;;;18.90;34.60;;;;;;4985333;28;20050;-62
2024/03/31 06:08:46;;;;;;;46.90;6.80;;;19.00;34.70;;;;;;4993500;28;20120;-64
2024/03/31 06:11:15;;;;;;;57.08;6.38;;;19.00;34.70;;;;;;4990596;28;20046;-64
2024/03/31 06:13:43;;;;;;;54.72;5.82;;;19.10;34.80;;;;;;4988183;28;20064;-64
2024/03/31 06:16:10;;;;;;;40.85;6.55;;;19.10;34.70;;;;;;4979095;28;20148;-64
2024/03/31 06:18:38;;;;;;;53.42;5.82;;;19.20;34.70;;;;;;4993500;28;20053;-66
2024/03/31 06:21:07;;;;;;;57.10;5.95;;;19.40;34.80;;;;;;4988225;28;20053;-64
2024/03/31 06:23:35;;;;;;;64.43;6.10;;;19.50;34.70;;;;;;4995333;28;20302;-64
2024/03/31 06:26:04;;;;;;;37.15;6.00;;;19.60;34.70;;;;;;4986342;28;20090;-64
2024/03/31 06:28:31;;;;;;;49.08;4.82;;;19.70;34.70;;;;;;4989201;28;20176;-64
2024/03/31 06:30:59;;;;;;;37.95;5.40;;;19.80;34.60;;;;;;4996442;28;20067;-67
2024/03/31 06:33:25;;;;;;;47.08;6.72;;;19.90;34.60;;;;;;4999358;28;20950;-64
2024/03/31 06:35:56;;;;;;;26.40;7.05;;;20.00;34.50;;;;;;4975663;28;20053;-64
2024/03/31 06:38:23;;;;;;;48.45;7.35;;;20.00;34.50;;;;;;5004082;28;20409;-63
2024/03/31 06:40:51;;;;;;;34.30;4.93;;;20.00;34.40;;;;;;4978143;28;20692;-63
2024/03/31 06:43:18;;;;;;;57.13;6.85;;;20.00;34.40;;;;;;4989477;28;20045;-64
2024/03/31 06:45:49;;;;;;;70.85;8.50;;;19.90;34.40;;;;;;4995304;28;20038;-64
2024/03/31 06:48:17;;;;;;;70.88;7.38;;;19.90;34.60;;;;;;4997660;28;20427;-64
2024/03/31 06:50:45;;;;;;;89.88;7.20;;;19.80;34.50;;;;;;4992295;28;20103;-63
2024/03/31 06:53:14;;;;;;;35.45;4.70;;;19.70;34.60;;;;;;4995024;28;20057;-63
2024/03/31 06:55:43;;;;;;;51.83;5.18;;;19.70;34.70;;;;;;4987417;28;20075;-64
2024/03/31 06:58:10;;;;;;;56.58;6.40;;;19.60;34.70;;;;;;4980317;28;20137;-63
2024/03/31 07:00:39;;;;;;;51.20;6.07;;;19.60;34.70;;;;;;5000605;28;20125;-57
2024/03/31 07:03:06;;;;;;;37.15;5.50;;;19.60;34.90;;;;;;4993620;28;20084;-56
2024/03/31 07:05:34;;;;;;;43.72;5.55;;;19.60;35.00;;;;;;4987486;28;20061;-57
2024/03/31 07:08:00;;;;;;;37.50;4.32;;;19.80;35.30;;;;;;5000276;28;20053;-56
2024/03/31 07:10:29;;;;;;;30.58;4.90;;;20.00;35.30;;;;;;5004384;28;20571;-57
2024/03/31 07:12:55;;;;;;;48.55;6.63;;;20.20;35.10;;;;;;5009459;28;20045;-54
2024/03/31 07:15:23;;;;;;;29.67;5.03;;;20.20;35.00;;;;;;4990686;28;20058;-66
2024/03/31 07:17:50;;;;;;;42.95;7.47;;;20.30;34.90;;;;;;5005485;28;20849;-67
2024/03/31 07:20:18;;;;;;;35.88;4.93;;;20.30;34.80;;;;;;4986074;28;20337;-64
2024/03/31 07:22:44;;;;;;;52.70;6.35;;;20.30;34.70;;;;;;5003982;28;20058;-66
2024/03/31 07:25:12;;;;;;;81.72;6.68;;;20.20;34.70;;;;;;5002124;28;20069;-65
2024/03/31 07:27:40;;;;;;;40.38;6.82;;;20.10;34.70;;;;;;4991679;28;20065;-69
2024/03/31 07:30:08;;;;;;;51.72;6.90;;;20.10;34.80;;;;;;4994137;28;20057;-66
2024/03/31 07:32:35;;;;;;;46.72;6.57;;;20.10;34.90;;;;;;4990757;28;20080;-66
2024/03/31 07:35:02;;;;;;;44.78;4.85;;;20.10;34.90;;;;;;4934832;28;20591;-65
2024/03/31 07:37:29;;;;;;;42.78;6.25;;;20.20;34.90;;;;;;5005669;28;20049;-64
2024/03/31 07:39:56;;;;;;;48.67;7.60;;;20.40;34.90;;;;;;4990324;28;20062;-65
2024/03/31 07:42:22;;;;;;;52.38;5.70;;;20.60;35.00;;;;;;4987242;28;20075;-66
2024/03/31 07:44:51;;;;;;;56.35;6.63;;;21.10;35.10;;;;;;4997934;28;20062;-66
2024/03/31 07:47:17;;;;;;;49.97;6.82;;;21.60;34.80;;;;;;5012757;28;20053;-64
2024/03/31 07:49:45;;;;;;;57.58;7.70;;;22.10;34.50;;;;;;4990294;28;20463;-60
2024/03/31 07:52:11;;;;;;;33.40;6.72;;;22.80;34.50;;;;;;4990407;28;20200;-64
2024/03/31 07:54:39;;;;;;;53.10;5.63;;;24.20;34.50;;;;;;5003329;28;20089;-62
2024/03/31 07:57:05;;;;;;;32.42;5.47;;;25.70;33.30;;;;;;5006532;28;20049;-63
2024/03/31 07:59:33;;;;;;;34.35;5.13;;;26.30;32.10;;;;;;4999770;28;20166;-61
2024/03/31 08:02:00;;;;;;;52.35;6.25;;;26.50;31.50;;;;;;4993639;28;20077;-65
2024/03/31 08:04:29;;;;;;;83.20;7.53;;;26.60;31.20;;;;;;4989456;28;20543;-62
2024/03/31 08:06:55;;;;;;;31.15;6.22;;;26.50;31.20;;;;;;5004817;28;20528;-64
2024/03/31 08:09:23;;;;;;;51.72;6.00;;;26.50;31.10;;;;;;4994139;28;20539;-68
2024/03/31 08:11:49;;;;;;;28.13;6.10;;;26.40;31.10;;;;;;4986193;28;20046;-63
2024/03/31 08:14:17;;;;;;;83.07;7.78;;;26.50;31.10;;;;;;4989684;28;20054;-68
2024/03/31 08:16:43;;;;;;;40.90;6.00;;;26.50;31.00;;;;;;5003075;28;20057;-67
2024/03/31 08:19:12;;;;;;;44.28;6.93;;;26.40;30.80;;;;;;4998104;28;20111;-67
2024/03/31 08:21:39;;;;;;;39.80;6.10;;;26.40;30.80;;;;;;4995581;28;20265;-64
2024/03/31 08:24:07;;;;;;;44.33;6.80;;;26.40;30.90;;;;;;4995637;28;20061;-64
2024/03/31 08:26:33;;;;;;;51.03;7.13;;;26.90;31.40;;;;;;4999682;28;20053;-69
2024/03/31 08:29:01;;;;;;;77.35;7.53;;;27.50;30.90;;;;;;4997076;28;20092;-65
2024/03/31 08:31:27;;;;;;;74.65;9.00;;;28.10;30.60;;;;;;5003439;28;20523;-65
2024/03/31 08:33:54;;;;;;;54.47;7.10;;;28.70;30.50;;;;;;4981150;28;20046;-63
2024/03/31 08:36:22;;;;;;;50.72;7.25;;;29.80;30.30;;;;;;4999425;28;20054;-62
2024/03/31 08:38:50;;;;;;;40.47;6.65;;;30.60;29.60;;;;;;4997480;28;20622;-64
2024/03/31 08:41:23;;;;;;;42.03;7.25;;;31.10;29.30;;;;;;5002333;28;20057;-64
2024/03/31 08:43:53;;;;;;;56.83;8.65;;;31.70;29.10;;;;;;5002754;28;20062;-61
2024/03/31 08:46:19;;;;;;;65.20;7.65;;;33.00;29.00;;;;;;5002317;28;20108;-67
2024/03/31 08:48:47;;;;;;;32.33;5.03;;;33.70;28.20;;;;;;4995213;28;20053;-63
2024/03/31 08:51:14;;;;;;;55.70;7.63;;;34.10;27.80;;;;;;4993764;28;20052;-65
2024/03/31 08:53:44;;;;;;;50.25;8.18;;;34.70;28.40;;;;;;5004199;28;20065;-67
2024/03/31 08:56:10;;;;;;;54.97;6.55;;;35.60;27.70;;;;;;4996432;28;20049;-72
2024/03/31 08:58:39;;;;;;;67.65;7.45;;;36.60;27.40;;;;;;4987759;28;20060;-72
2024/03/31 09:01:06;;;;;;;53.22;6.85;;;37.50;26.70;;;;;;4985292;28;20057;-68
2024/03/31 09:03:34;;;;;;;52.83;6.38;;;38.20;26.10;;;;;;5007893;28;20069;-67
2024/03/31 09:06:00;;;;;;;55.40;6.25;;;38.90;25.70;;;;;;4979219;28;20052;-67
2024/03/31 09:08:28;;;;;;;71.43;6.97;;;39.50;25.20;;;;;;5004754;28;20058;-67
2024/03/31 09:10:56;;;;;;;63.78;7.07;;;39.90;24.80;;;;;;4987098;28;20060;-68
2024/03/31 09:13:24;;;;;;;51.03;6.88;;;40.60;24.60;;;;;;5002728;28;20094;-67
2024/03/31 09:15:50;;;;;;;45.15;6.97;;;41.30;24.10;;;;;;4997982;28;20053;-65
2024/03/31 09:18:18;;;;;;;82.07;9.45;;;41.60;23.60;;;;;;5002334;28;20068;-67
2024/03/31 09:20:44;;;;;;;48.38;6.40;;;41.60;23.30;;;;;;4986047;28;20057;-70
2024/03/31 09:23:13;;;;;;;61.47;6.28;;;41.60;23.20;;;;;;5003982;28;20119;-68
2024/03/31 09:25:40;;;;;;;74.43;7.45;;;41.80;23.20;;;;;;4985761;28;20136;-67
2024/03/31 09:28:09;;;;;;;60.42;7.93;;;42.00;22.90;;;;;;5002101;28;20060;-68
2024/03/31 09:30:35;;;;;;;35.45;7.10;;;42.00;22.70;;;;;;5001092;28;20108;-70
2024/03/31 09:33:03;;;;;;;36.60;6.43;;;42.40;22.70;;;;;;5002538;28;20061;-69
2024/03/31 09:35:31;;;;;;;54.67;8.35;;;42.80;22.40;;;;;;4985478;28;20068;-68
2024/03/31 09:37:59;;;;;;;62.58;6.50;;;42.80;22.30;;;;;;4976423;28;20077;-68
2024/03/31 09:40:26;;;;;;;54.25;7.93;;;42.70;22.10;;;;;;5002494;28;20058;-67
2024/03/31 09:42:53;;;;;;;58.03;7.20;;;42.50;22.00;;;;;;5004483;28;20080;-66
2024/03/31 09:45:21;;;;;;;44.90;7.00;;;42.40;22.20;;;;;;4997227;28;20056;-66
2024/03/31 09:47:52;;;;;;;55.35;6.82;;;42.80;22.00;;;;;;5002133;28;20053;-66
2024/03/31 09:50:28;;;;;;;63.40;7.03;;;42.60;21.70;;;;;;4999589;28;20085;-71
2024/03/31 09:53:02;;;;;;;56.58;8.07;;;41.90;21.50;;;;;;5002325;28;20158;-67
2024/03/31 09:55:37;;;;;;;66.37;9.13;;;41.00;21.70;;;;;;4986301;28;20046;-68
2024/03/31 09:58:08;;;;;;;42.97;7.18;;;39.70;21.80;;;;;;4986587;28;20054;-64
2024/03/31 10:00:36;;;;;;;48.22;6.93;;;39.00;22.40;;;;;;4999154;28;20151;-66
2024/03/31 10:03:10;;;;;;;80.25;6.82;;;38.40;22.60;;;;;;5003638;28;20098;-70
2024/03/31 10:05:38;;;;;;;39.17;6.30;;;38.10;23.00;;;;;;5014865;28;20085;-66
2024/03/31 10:08:08;;;;;;;53.38;8.27;;;37.80;23.00;;;;;;4978414;28;20058;-67
2024/03/31 10:10:35;;;;;;;60.40;9.40;;;37.40;23.10;;;;;;4988761;28;20378;-67
2024/03/31 10:13:05;;;;;;;48.13;7.15;;;37.10;23.40;;;;;;4986580;28;20061;-67
2024/03/31 10:15:32;;;;;;;65.18;7.57;;;37.20;23.70;;;;;;5007375;28;20473;-65
2024/03/31 10:18:03;;;;;;;50.25;8.18;;;37.70;23.60;;;;;;4992527;28;20053;-66
2024/03/31 10:20:30;;;;;;;42.47;6.70;;;37.60;23.40;;;;;;5006559;28;20065;-66
2024/03/31 10:22:58;;;;;;;71.65;7.93;;;37.50;23.40;;;;;;5002350;28;20834;-66
2024/03/31 10:25:27;;;;;;;46.22;9.57;;;37.20;23.40;;;;;;4990889;28;20057;-67
2024/03/31 10:27:59;;;;;;;59.92;6.43;;;37.00;23.60;;;;;;5000418;28;20501;-67
2024/03/31 10:30:27;;;;;;;51.40;6.55;;;36.80;23.60;;;;;;5010299;28;20037;-64
2024/03/31 10:32:55;;;;;;;60.80;8.85;;;36.60;23.70;;;;;;5009774;28;20051;-66
2024/03/31 10:35:25;;;;;;;57.60;6.10;;;36.30;23.80;;;;;;4984065;28;20108;-66
2024/03/31 10:37:53;;;;;;;77.60;7.18;;;36.00;23.80;;;;;;5001062;28;20152;-65
2024/03/31 10:40:25;;;;;;;77.70;10.32;;;35.60;24.10;;;;;;5001829;28;20058;-67
2024/03/31 10:42:55;;;;;;;71.10;8.55;;;35.40;24.40;;;;;;5009227;28;20050;-66
2024/03/31 10:45:23;;;;;;;66.32;7.43;;;36.10;24.60;;;;;;5003953;28;20057;-70
2024/03/31 10:47:50;;;;;;;71.38;7.65;;;37.50;24.40;;;;;;5003807;28;20060;-67
2024/03/31 10:50:24;;;;;;;66.07;7.25;;;39.10;23.70;;;;;;5000343;28;20050;-70
2024/03/31 10:52:52;;;;;;;76.43;8.00;;;40.30;22.90;;;;;;5006422;28;20049;-65
2024/03/31 10:55:20;;;;;;;68.38;8.30;;;41.10;22.40;;;;;;4991857;28;20054;-68
2024/03/31 10:57:57;;;;;;;66.88;6.72;;;41.60;22.10;;;;;;4992827;28;20049;-66
2024/03/31 11:00:24;;;;;;;64.03;7.53;;;41.60;21.80;;;;;;5003616;28;20053;-65
2024/03/31 11:02:53;;;;;;;43.28;7.63;;;41.60;21.60;;;;;;4997489;28;20042;-66
2024/03/31 11:05:20;;;;;;;140.98;85.57;;;41.20;21.50;;;;;;5007182;28;20065;-68
2024/03/31 11:07:56;;;;;;;571.50;368.08;;;40.60;21.60;;;;;;4982495;28;20050;-67
2024/03/31 11:10:24;;;;;;;557.35;361.85;;;39.60;21.80;;;;;;5004344;28;20057;-66
2024/03/31 11:12:53;;;;;;;569.95;344.80;;;38.60;22.30;;;;;;4983720;28;20046;-66
2024/03/31 11:15:20;;;;;;;563.08;336.63;;;37.90;22.60;;;;;;5004978;28;20115;-67
2024/03/31 11:17:50;;;;;;;589.60;335.90;;;37.10;22.80;;;;;;4999233;28;20477;-70
2024/03/31 11:20:18;;;;;;;605.33;345.85;;;36.20;23.10;;;;;;4992944;28;20053;-66
2024/03/31 11:22:46;;;;;;;602.58;335.23;;;35.30;23.60;;;;;;4995946;28;20056;-65
2024/03/31 11:25:14;;;;;;;653.55;346.25;;;34.50;24.10;;;;;;5011077;28;20470;-66
2024/03/31 11:27:41;;;;;;;602.08;319.85;;;33.80;24.40;;;;;;5011835;28;20445;-67
2024/03/31 11:30:10;;;;;;;796.67;399.90;;;33.20;24.70;;;;;;5006210;28;20709;-68
2024/03/31 11:32:38;;;;;;;627.30;352.08;;;32.60;25.00;;;;;;5009288;28;20062;-67
2024/03/31 11:35:05;;;;;;;648.00;355.50;;;32.20;25.30;;;;;;5007562;28;20053;-70
2024/03/31 11:37:33;;;;;;;612.95;314.10;;;31.70;25.50;;;;;;5006167;28;20149;-66
2024/03/31 11:40:00;;;;;;;824.95;395.75;;;31.30;25.70;;;;;;4991670;28;20314;-69
2024/03/31 11:42:30;;;;;;;591.35;300.92;;;31.00;25.90;;;;;;5004267;28;20062;-67
2024/03/31 11:44:57;;;;;;;613.55;300.50;;;30.90;26.00;;;;;;5003533;28;20578;-67
2024/03/31 11:47:25;;;;;;;602.75;267.38;;;30.90;26.20;;;;;;4989841;28;20042;-70
2024/03/31 11:49:51;;;;;;;598.75;284.42;;;31.00;26.20;;;;;;5004102;28;20159;-65
2024/03/31 11:52:18;;;;;;;703.28;355.50;;;31.00;25.90;;;;;;5005366;28;20420;-68
2024/03/31 11:54:45;;;;;;;586.05;273.60;;;30.70;25.50;;;;;;4997015;28;20111;-68
2024/03/31 11:57:13;;;;;;;633.72;307.55;;;30.50;25.50;;;;;;4992194;28;20107;-67
2024/03/31 11:59:40;;;;;;;582.15;262.02;;;30.10;24.90;;;;;;4994498;28;20072;-67
2024/03/31 12:02:08;;;;;;;716.28;317.30;;;29.90;25.10;;;;;;5000195;28;20054;-67
2024/03/31 12:04:34;;;;;;;573.75;247.98;;;29.80;25.40;;;;;;4987332;28;20049;-67
2024/03/31 12:07:02;;;;;;;565.50;216.32;;;29.80;25.30;;;;;;4998143;28;20137;-68
2024/03/31 12:09:29;;;;;;;559.72;211.63;;;29.70;25.20;;;;;;4997588;28;20695;-67
2024/03/31 12:11:56;;;;;;;724.80;332.80;;;29.60;25.10;;;;;;4991951;28;20057;-66
2024/03/31 12:14:23;;;;;;;591.05;249.65;;;29.40;24.90;;;;;;5001776;28;20068;-68
2024/03/31 12:16:53;;;;;;;586.97;245.43;;;29.30;24.90;;;;;;5011535;28;20049;-66
2024/03/31 12:19:20;;;;;;;564.10;219.52;;;29.20;25.00;;;;;;5008631;28;20126;-67
2024/03/31 12:21:48;;;;;;;566.05;225.02;;;29.10;24.80;;;;;;4996981;28;20066;-65
2024/03/31 12:24:15;;;;;;;552.10;212.05;;;29.00;24.90;;;;;;4994406;28;20096;-67
2024/03/31 12:26:43;;;;;;;579.40;237.45;;;28.90;24.80;;;;;;4991126;28;20060;-66
2024/03/31 12:29:18;;;;;;;574.60;243.23;;;28.80;24.90;;;;;;5000986;28;20084;-66
2024/03/31 12:31:46;;;;;;;602.67;246.95;;;28.80;25.10;;;;;;4992733;28;20046;-67
2024/03/31 12:34:15;;;;;;;575.25;243.57;;;28.70;24.90;;;;;;4991770;28;21192;-66
2024/03/31 12:36:43;;;;;;;598.67;248.50;;;28.50;24.90;;;;;;4987399;28;20073;-66